M I D A S
Marine Information and Data Acquisition System
Tripno 1108 of the Zeeleeuw from 2006-06-02 06:35:58 to 2006-06-02 14:54:49
Back to CruiseResearch ActivitiesStationsMapUnderway DataData graphs

EquipmentUnitsComments
TimeDGPSUTC
LatitudeDGPSDM.mWGS84
LongitudeDGPSDM.mWGS84
SpeedMeteo Stationm/sRelative wind speed
DirectionMeteo StationdegRelative wind direction
TemperatureMeteo Stationdeg CelciusAir temperature
PressureMeteo StationPaAtmospheric pressure
HumidityMeteo Station%Relative humidity
Missing or incorrect values are displayed as -999
Metereological data collected by the RV Zeeleeuw from 2006-06-02 06:32:24 to 2006-06-02 15:07:40
                                                                                    Next 1000 lines
Time Latitude Longitude Speed Direction Temperature Pressure Humidity
2006-06-02 06:32:34 51°13.601 2°56.095 -999 21 11.1 102990 67
2006-06-02 06:32:38 51°13.601 2°56.094 -999 20 11.1 102990 67
2006-06-02 06:32:44 51°13.602 2°56.091 -999 18 11.1 102990 67
2006-06-02 06:32:49 51°13.602 2°56.089 -999 19 11.1 102990 67
2006-06-02 06:32:53 51°13.602 2°56.086 -999 19 11.1 103000 67
2006-06-02 06:32:59 51°13.603 2°56.082 -999 19 11.1 103000 67
2006-06-02 06:33:04 51°13.604 2°56.078 -999 19 11.1 103000 67
2006-06-02 06:33:09 51°13.605 2°56.073 -999 19 11.1 103000 67
2006-06-02 06:33:14 51°13.606 2°56.068 -999 19 11.1 103000 67
2006-06-02 06:33:19 51°13.607 2°56.063 -999 40 11.1 103000 67
2006-06-02 06:33:24 51°13.608 2°56.057 -999 127 11 103000 67
2006-06-02 06:33:29 51°13.609 2°56.051 -999 163 11 103000 67
2006-06-02 06:33:34 51°13.61 2°56.044 -999 163 11 103000 67
2006-06-02 06:33:39 51°13.611 2°56.038 -999 156 11 103000 67
2006-06-02 06:33:44 51°13.612 2°56.031 -999 156 11.1 103000 67
2006-06-02 06:33:49 51°13.613 2°56.023 -999 155 11.1 103000 67
2006-06-02 06:33:54 51°13.614 2°56.016 -999 154 11.1 103000 67
2006-06-02 06:33:59 51°13.616 2°56.008 -999 155 11.1 103000 67
2006-06-02 06:34:04 51°13.617 2°56 -999 155 11.1 103000 67
2006-06-02 06:34:09 51°13.618 2°55.992 -999 152 11.1 103000 67
2006-06-02 06:34:14 51°13.62 2°55.984 -999 154 11 103000 67
2006-06-02 06:34:18 51°13.621 2°55.978 -999 155 11 103000 67
2006-06-02 06:34:24 51°13.624 2°55.968 -999 156 11 103000 67
2006-06-02 06:34:29 51°13.626 2°55.96 -999 156 11 103000 67
2006-06-02 06:34:34 51°13.629 2°55.952 -999 156 11 103000 67
2006-06-02 06:34:39 51°13.632 2°55.943 -999 156 11 103000 67
2006-06-02 06:34:44 51°13.635 2°55.935 -999 156 11 103000 67
2006-06-02 06:34:49 51°13.639 2°55.926 -999 156 11 103000 67
2006-06-02 06:34:54 51°13.642 2°55.918 -999 156 11 103000 67
2006-06-02 06:34:59 51°13.646 2°55.909 -999 214 11 103000 67
2006-06-02 06:35:04 51°13.65 2°55.901 -999 191 11 103000 67
2006-06-02 06:35:09 51°13.654 2°55.893 -999 181 11 103000 67
2006-06-02 06:35:14 51°13.658 2°55.885 -999 181 11 103000 67
2006-06-02 06:35:19 51°13.661 2°55.877 -999 244 11 103000 67
2006-06-02 06:35:24 51°13.665 2°55.869 -999 212 11 103000 67
2006-06-02 06:35:29 51°13.669 2°55.86 -999 209 11 103000 67
2006-06-02 06:35:34 51°13.674 2°55.852 -999 208 11 103000 68
2006-06-02 06:35:39 51°13.678 2°55.844 -999 210 11 103000 68
2006-06-02 06:35:44 51°13.683 2°55.836 -999 211 11 103000 68
2006-06-02 06:35:49 51°13.687 2°55.829 -999 175 11 103000 68
2006-06-02 06:35:54 51°13.692 2°55.821 -999 200 11 103000 68
2006-06-02 06:35:59 51°13.696 2°55.813 -999 200 11 103000 68
2006-06-02 06:36:04 51°13.701 2°55.806 -999 212 11.1 103000 68
2006-06-02 06:36:09 51°13.705 2°55.799 -999 215 11.1 103000 68
2006-06-02 06:36:14 51°13.708 2°55.793 -999 219 11 103000 68
2006-06-02 06:36:19 51°13.712 2°55.787 -999 183 11 103000 68
2006-06-02 06:36:24 51°13.715 2°55.781 -999 179 11 103000 68
2006-06-02 06:36:29 51°13.718 2°55.776 -999 212 11 103000 68
2006-06-02 06:36:34 51°13.72 2°55.772 -999 206 11 103000 68
2006-06-02 06:36:38 51°13.722 2°55.77 -999 210 11 103000 68
2006-06-02 06:36:44 51°13.723 2°55.766 -999 219 11 103000 68
2006-06-02 06:36:49 51°13.725 2°55.763 -999 229 11 103000 68
2006-06-02 06:36:54 51°13.726 2°55.76 -999 234 11 103000 68
2006-06-02 06:36:58 51°13.727 2°55.758 -999 256 11 103000 68
2006-06-02 06:37:04 51°13.728 2°55.756 -999 243 11 103000 68
2006-06-02 06:37:09 51°13.729 2°55.755 -999 246 11 103000 68
2006-06-02 06:37:14 51°13.729 2°55.754 -999 253 11 103000 68
2006-06-02 06:37:19 51°13.73 2°55.752 -999 253 11 103000 68
2006-06-02 06:37:24 51°13.731 2°55.75 -999 257 11 103000 68
2006-06-02 06:37:29 51°13.732 2°55.748 -999 262 11 103000 68
2006-06-02 06:37:34 51°13.732 2°55.746 -999 239 11.1 103010 68
2006-06-02 06:37:39 51°13.733 2°55.742 -999 247 11.1 103010 68
2006-06-02 06:37:44 51°13.733 2°55.739 -999 248 11.1 103000 68
2006-06-02 06:37:49 51°13.734 2°55.737 -999 245 11.1 103000 68
2006-06-02 06:37:53 51°13.734 2°55.735 -999 236 11.1 103010 68
2006-06-02 06:37:59 51°13.734 2°55.733 -999 266 11.1 103010 68
2006-06-02 06:38:04 51°13.734 2°55.732 -999 273 11.1 103010 68
2006-06-02 06:38:09 51°13.734 2°55.733 -999 275 11.1 103010 68
2006-06-02 06:38:14 51°13.735 2°55.733 -999 284 11.1 103000 68
2006-06-02 06:38:19 51°13.735 2°55.734 -999 283 11.1 103000 68
2006-06-02 06:38:22 51°13.736 2°55.734 -999 280 11.1 103010 67
2006-06-02 06:38:29 51°13.736 2°55.733 -999 294 11.1 103010 67
2006-06-02 06:38:34 51°13.736 2°55.731 -999 280 11.1 103010 67
2006-06-02 06:38:39 51°13.735 2°55.728 -999 278 11.1 103010 67
2006-06-02 06:38:43 51°13.735 2°55.725 -999 273 11.1 103000 67
2006-06-02 06:38:49 51°13.733 2°55.721 -999 269 11.1 103000 67
2006-06-02 06:38:54 51°13.731 2°55.716 -999 270 11.1 103010 67
2006-06-02 06:38:58 51°13.73 2°55.713 -999 270 11.1 103010 67
2006-06-02 06:39:04 51°13.727 2°55.708 -999 270 11.1 103010 67
2006-06-02 06:39:09 51°13.726 2°55.705 -999 278 11.1 103010 67
2006-06-02 06:39:14 51°13.725 2°55.703 -999 283 11.1 103010 67
2006-06-02 06:39:19 51°13.724 2°55.701 -999 291 11.1 103010 67
2006-06-02 06:39:24 51°13.724 2°55.7 -999 301 11.1 103010 66
2006-06-02 06:39:29 51°13.724 2°55.7 -999 321 11.1 103010 66
2006-06-02 06:39:34 51°13.725 2°55.7 -999 321 11.1 103000 66
2006-06-02 06:39:39 51°13.726 2°55.7 -999 328 11.1 103000 66
2006-06-02 06:39:44 51°13.727 2°55.701 -999 338 11.2 103010 66
2006-06-02 06:39:49 51°13.729 2°55.701 -999 349 11.2 103010 66
2006-06-02 06:39:54 51°13.731 2°55.703 -999 352 11.2 103010 67
2006-06-02 06:39:58 51°13.733 2°55.703 -999 -999 11.2 103010 67
2006-06-02 06:40:04 51°13.737 2°55.703 -999 3 11.2 103000 66
2006-06-02 06:40:09 51°13.741 2°55.702 -999 8 11.2 103000 66
2006-06-02 06:40:13 51°13.744 2°55.701 -999 13 11.2 103000 66
2006-06-02 06:40:18 51°13.749 2°55.699 -999 6 11.2 103000 66
2006-06-02 06:40:24 51°13.754 2°55.695 -999 12 11.2 103000 66
2006-06-02 06:40:29 51°13.76 2°55.692 -999 16 11.2 103000 66
2006-06-02 06:40:34 51°13.765 2°55.688 -999 9 11.2 103010 65
2006-06-02 06:40:39 51°13.771 2°55.682 -999 17 11.2 103010 65
2006-06-02 06:40:44 51°13.778 2°55.678 -999 15 11.2 103000 65
2006-06-02 06:40:49 51°13.785 2°55.674 -999 14 11.2 103000 65
2006-06-02 06:40:54 51°13.794 2°55.669 -999 5 11.2 103000 65
2006-06-02 06:40:59 51°13.802 2°55.663 -999 10 11.2 103000 65
2006-06-02 06:41:04 51°13.811 2°55.658 -999 15 11.2 103000 65
2006-06-02 06:41:08 51°13.818 2°55.653 -999 13 11.2 103000 65
2006-06-02 06:41:14 51°13.828 2°55.645 -999 14 11.1 103000 65
2006-06-02 06:41:18 51°13.835 2°55.64 -999 25 11.1 103000 65
2006-06-02 06:41:24 51°13.845 2°55.631 -999 20 11.1 103000 65
2006-06-02 06:41:29 51°13.855 2°55.625 -999 14 11.1 103000 65
2006-06-02 06:41:34 51°13.864 2°55.618 -999 18 11.1 103000 65
2006-06-02 06:41:39 51°13.874 2°55.61 -999 16 11.1 103000 65
2006-06-02 06:41:42 51°13.88 2°55.606 -999 17 11.1 103000 65
2006-06-02 06:41:49 51°13.893 2°55.596 -999 17 11.1 103000 65
2006-06-02 06:41:54 51°13.903 2°55.589 -999 21 11.1 103000 65
2006-06-02 06:41:58 51°13.911 2°55.583 -999 27 11.1 103000 65
2006-06-02 06:42:04 51°13.922 2°55.573 -999 22 11.1 103000 65
2006-06-02 06:42:09 51°13.932 2°55.566 -999 24 11.1 103000 65
2006-06-02 06:42:14 51°13.942 2°55.559 -999 20 11.1 103000 65
2006-06-02 06:42:18 51°13.95 2°55.553 -999 25 11.1 103000 65
2006-06-02 06:42:24 51°13.962 2°55.545 -999 25 11.1 103000 65
2006-06-02 06:42:29 51°13.973 2°55.539 -999 33 11.1 103000 65
2006-06-02 06:42:34 51°13.983 2°55.532 -999 20 11.1 103000 65
2006-06-02 06:42:38 51°13.991 2°55.527 -999 18 11.1 103000 65
2006-06-02 06:42:44 51°14.003 2°55.519 -999 18 11 103000 65
2006-06-02 06:42:49 51°14.013 2°55.512 -999 19 11 103000 65
2006-06-02 06:42:54 51°14.023 2°55.505 -999 12 11 103000 65
2006-06-02 06:42:58 51°14.031 2°55.5 -999 16 11 103000 65
2006-06-02 06:43:03 51°14.04 2°55.493 -999 16 11 103000 65
2006-06-02 06:43:08 51°14.05 2°55.487 -999 19 11 103000 65
2006-06-02 06:43:13 51°14.06 2°55.48 -999 18 11 103000 66
2006-06-02 06:43:18 51°14.07 2°55.473 -999 24 11 103000 66
2006-06-02 06:43:24 51°14.081 2°55.464 -999 25 11 103000 66
2006-06-02 06:43:29 51°14.091 2°55.457 -999 25 11 103000 66
2006-06-02 06:43:34 51°14.101 2°55.45 -999 22 11 102990 66
2006-06-02 06:43:38 51°14.109 2°55.445 -999 17 11 102990 66
2006-06-02 06:43:44 51°14.12 2°55.437 -999 22 11 103000 65
2006-06-02 06:43:49 51°14.13 2°55.43 -999 23 11 103000 65
2006-06-02 06:43:54 51°14.14 2°55.423 -999 22 11 103000 65
2006-06-02 06:43:59 51°14.15 2°55.415 -999 17 11 103000 65
2006-06-02 06:44:02 51°14.155 2°55.41 -999 25 11 103000 66
2006-06-02 06:44:09 51°14.168 2°55.398 -999 25 11 103000 66
2006-06-02 06:44:14 51°14.177 2°55.388 -999 28 10.9 102990 66
2006-06-02 06:44:18 51°14.184 2°55.38 -999 48 10.9 102990 66
2006-06-02 06:44:24 51°14.195 2°55.369 -999 40 10.9 103000 66
2006-06-02 06:44:29 51°14.204 2°55.358 -999 42 10.9 103000 66
2006-06-02 06:44:34 51°14.213 2°55.348 -999 37 11 102990 66
2006-06-02 06:44:38 51°14.22 2°55.338 -999 38 11 102990 66
2006-06-02 06:44:44 51°14.23 2°55.324 -999 34 11 102990 67
2006-06-02 06:44:49 51°14.238 2°55.311 -999 32 11 102990 67
2006-06-02 06:44:54 51°14.246 2°55.297 -999 34 11 102990 67
2006-06-02 06:44:58 51°14.252 2°55.286 -999 34 11 102990 67
2006-06-02 06:45:03 51°14.26 2°55.272 -999 22 10.9 103000 67
2006-06-02 06:45:09 51°14.269 2°55.255 -999 31 10.9 103000 67
2006-06-02 06:45:14 51°14.277 2°55.24 -999 25 10.9 103000 67
2006-06-02 06:45:19 51°14.284 2°55.225 -999 25 10.9 103000 67
2006-06-02 06:45:24 51°14.292 2°55.211 -999 24 10.9 103000 67
2006-06-02 06:45:29 51°14.3 2°55.196 -999 23 10.9 103000 67
2006-06-02 06:45:34 51°14.309 2°55.18 -999 36 10.9 103000 68
2006-06-02 06:45:38 51°14.315 2°55.169 -999 32 10.9 103000 68
2006-06-02 06:45:44 51°14.325 2°55.15 -999 32 10.9 103000 68
2006-06-02 06:45:49 51°14.334 2°55.135 -999 31 10.9 103000 68
2006-06-02 06:45:54 51°14.343 2°55.121 -999 21 10.9 103000 68
2006-06-02 06:45:58 51°14.35 2°55.109 -999 22 10.9 103000 68
2006-06-02 06:46:04 51°14.361 2°55.091 -999 32 10.9 103000 67
2006-06-02 06:46:08 51°14.369 2°55.079 -999 29 10.9 103000 67
2006-06-02 06:46:13 51°14.378 2°55.065 -999 29 10.8 103000 67
2006-06-02 06:46:18 51°14.388 2°55.05 -999 30 10.8 103000 67
2006-06-02 06:46:24 51°14.4 2°55.034 -999 29 10.8 103000 67
2006-06-02 06:46:29 51°14.411 2°55.019 -999 34 10.8 103000 67
2006-06-02 06:46:34 51°14.421 2°55.005 -999 27 10.8 103000 67
2006-06-02 06:46:38 51°14.43 2°54.995 -999 27 10.8 103000 67
2006-06-02 06:46:44 51°14.445 2°54.981 -999 25 10.8 102990 67
2006-06-02 06:46:49 51°14.457 2°54.969 -999 21 10.8 102990 67
2006-06-02 06:46:54 51°14.469 2°54.958 -999 22 10.8 102990 67
2006-06-02 06:46:58 51°14.479 2°54.95 -999 21 10.8 102990 67
2006-06-02 06:47:04 51°14.495 2°54.938 -999 21 10.8 103000 67
2006-06-02 06:47:09 51°14.508 2°54.928 -999 21 10.8 103000 67
2006-06-02 06:47:14 51°14.522 2°54.92 -999 17 10.8 102990 67
2006-06-02 06:47:18 51°14.533 2°54.913 -999 15 10.8 102990 67
2006-06-02 06:47:23 51°14.548 2°54.906 -999 19 10.8 102990 67
2006-06-02 06:47:29 51°14.566 2°54.898 -999 21 10.8 102990 67
2006-06-02 06:47:34 51°14.58 2°54.892 -999 19 10.8 103000 66
2006-06-02 06:47:39 51°14.596 2°54.886 -999 22 10.8 103000 66
2006-06-02 06:47:42 51°14.604 2°54.882 -999 29 10.8 103000 66
2006-06-02 06:47:49 51°14.626 2°54.874 -999 20 10.8 103000 66
2006-06-02 06:47:54 51°14.642 2°54.869 -999 19 10.8 102990 66
2006-06-02 06:47:58 51°14.654 2°54.865 -999 16 10.8 102990 66
2006-06-02 06:48:04 51°14.674 2°54.859 -999 19 10.8 102990 66
2006-06-02 06:48:09 51°14.69 2°54.854 -999 18 10.8 102990 66
2006-06-02 06:48:13 51°14.703 2°54.85 -999 17 10.8 102990 67
2006-06-02 06:48:18 51°14.719 2°54.844 -999 22 10.8 102990 67
2006-06-02 06:48:24 51°14.739 2°54.837 -999 20 10.8 102990 67
2006-06-02 06:48:28 51°14.752 2°54.832 -999 20 10.8 102990 67
2006-06-02 06:48:34 51°14.773 2°54.824 -999 20 10.8 103000 67
2006-06-02 06:48:39 51°14.789 2°54.817 -999 20 10.8 103000 67
2006-06-02 06:48:42 51°14.799 2°54.813 -999 21 10.8 102990 67
2006-06-02 06:48:49 51°14.821 2°54.801 -999 19 10.8 102990 67
2006-06-02 06:48:54 51°14.838 2°54.794 -999 21 10.8 102990 67
2006-06-02 06:48:58 51°14.851 2°54.788 -999 22 10.8 102990 67
2006-06-02 06:49:04 51°14.871 2°54.779 -999 22 10.8 102990 67
2006-06-02 06:49:09 51°14.888 2°54.772 -999 22 10.8 102990 67
2006-06-02 06:49:14 51°14.904 2°54.766 -999 19 10.8 102990 67
2006-06-02 06:49:18 51°14.918 2°54.761 -999 20 10.8 102990 67
2006-06-02 06:49:23 51°14.935 2°54.755 -999 21 10.8 102990 66
2006-06-02 06:49:29 51°14.954 2°54.747 -999 20 10.8 102990 66
2006-06-02 06:49:34 51°14.971 2°54.741 -999 20 10.8 102990 66
2006-06-02 06:49:38 51°14.984 2°54.736 -999 19 10.8 102990 66
2006-06-02 06:49:43 51°15.002 2°54.729 -999 22 10.8 102990 66
2006-06-02 06:49:49 51°15.021 2°54.72 -999 19 10.8 102990 66
2006-06-02 06:49:54 51°15.037 2°54.714 -999 21 10.8 102990 66
2006-06-02 06:49:59 51°15.054 2°54.706 -999 19 10.8 102990 66
2006-06-02 06:50:04 51°15.071 2°54.698 -999 21 10.8 102990 66
2006-06-02 06:50:09 51°15.088 2°54.691 -999 19 10.8 102990 66
2006-06-02 06:50:14 51°15.105 2°54.684 -999 18 10.8 102980 66
2006-06-02 06:50:18 51°15.118 2°54.678 -999 17 10.8 102980 66
2006-06-02 06:50:24 51°15.139 2°54.67 -999 18 10.8 102990 66
2006-06-02 06:50:29 51°15.157 2°54.663 -999 19 10.8 102990 66
2006-06-02 06:50:34 51°15.174 2°54.656 -999 20 10.8 103000 66
2006-06-02 06:50:39 51°15.192 2°54.65 -999 19 10.8 103000 66
2006-06-02 06:50:44 51°15.21 2°54.644 -999 21 10.8 102990 66
2006-06-02 06:50:49 51°15.227 2°54.639 -999 17 10.8 102990 66
2006-06-02 06:50:53 51°15.242 2°54.635 -999 18 10.8 102990 66
2006-06-02 06:50:58 51°15.259 2°54.629 -999 17 10.8 102990 66
2006-06-02 06:51:04 51°15.28 2°54.621 -999 18 10.8 103000 66
2006-06-02 06:51:09 51°15.298 2°54.613 -999 20 10.8 103000 66
2006-06-02 06:51:13 51°15.312 2°54.607 -999 26 10.8 103000 66
2006-06-02 06:51:18 51°15.329 2°54.599 -999 23 10.8 103000 66
2006-06-02 06:51:24 51°15.35 2°54.588 -999 27 10.8 102990 66
2006-06-02 06:51:29 51°15.366 2°54.579 -999 28 10.8 102990 66
2006-06-02 06:51:34 51°15.384 2°54.57 -999 30 10.8 103000 66
2006-06-02 06:51:39 51°15.401 2°54.561 -999 30 10.8 103000 66
2006-06-02 06:51:42 51°15.411 2°54.556 -999 29 10.8 102990 66
2006-06-02 06:51:49 51°15.434 2°54.545 -999 23 10.8 102990 66
2006-06-02 06:51:54 51°15.452 2°54.538 -999 23 10.7 103000 65
2006-06-02 06:51:59 51°15.469 2°54.531 -999 20 10.7 103000 65
2006-06-02 06:52:04 51°15.487 2°54.525 -999 23 10.7 103000 65
2006-06-02 06:52:08 51°15.501 2°54.521 -999 20 10.7 103000 65
2006-06-02 06:52:14 51°15.522 2°54.515 -999 19 10.8 103000 65
2006-06-02 06:52:19 51°15.54 2°54.511 -999 19 10.8 103000 65
2006-06-02 06:52:24 51°15.558 2°54.506 -999 20 10.7 102990 65
2006-06-02 06:52:28 51°15.572 2°54.502 -999 20 10.7 102990 65
2006-06-02 06:52:34 51°15.593 2°54.496 -999 15 10.7 103000 66
2006-06-02 06:52:38 51°15.607 2°54.492 -999 14 10.7 103000 66
2006-06-02 06:52:44 51°15.629 2°54.486 -999 10 10.7 103000 66
2006-06-02 06:52:49 51°15.647 2°54.481 -999 13 10.7 103000 66
2006-06-02 06:52:54 51°15.664 2°54.476 -999 14 10.7 103000 66
2006-06-02 06:52:58 51°15.679 2°54.472 -999 17 10.7 103000 66
2006-06-02 06:53:04 51°15.699 2°54.466 -999 16 10.7 102990 66
2006-06-02 06:53:08 51°15.714 2°54.462 -999 17 10.7 102990 66
2006-06-02 06:53:14 51°15.735 2°54.455 -999 19 10.8 103000 66
2006-06-02 06:53:18 51°15.749 2°54.45 -999 15 10.8 103000 66
2006-06-02 06:53:24 51°15.771 2°54.443 -999 17 10.8 103000 66
2006-06-02 06:53:29 51°15.788 2°54.437 -999 19 10.8 103000 66
2006-06-02 06:53:34 51°15.805 2°54.43 -999 21 10.8 102990 66
2006-06-02 06:53:38 51°15.82 2°54.426 -999 23 10.8 102990 66
2006-06-02 06:53:44 51°15.841 2°54.418 -999 22 10.7 103000 66
2006-06-02 06:53:49 51°15.859 2°54.413 -999 23 10.7 103000 66
2006-06-02 06:53:54 51°15.877 2°54.408 -999 25 10.8 103000 65
2006-06-02 06:53:58 51°15.891 2°54.404 -999 22 10.8 103000 65
2006-06-02 06:54:03 51°15.909 2°54.399 -999 21 10.7 103010 65
2006-06-02 06:54:09 51°15.931 2°54.393 -999 22 10.7 103010 65
2006-06-02 06:54:14 51°15.949 2°54.388 -999 18 10.7 103000 65
2006-06-02 06:54:18 51°15.963 2°54.384 -999 18 10.7 103000 65
2006-06-02 06:54:23 51°15.981 2°54.378 -999 18 10.7 103000 65
2006-06-02 06:54:28 51°15.998 2°54.372 -999 16 10.7 103000 65
2006-06-02 06:54:34 51°16.019 2°54.364 -999 19 10.7 102990 65
2006-06-02 06:54:39 51°16.037 2°54.358 -999 20 10.7 102990 65
2006-06-02 06:54:42 51°16.047 2°54.355 -999 20 10.8 103000 65
2006-06-02 06:54:49 51°16.069 2°54.348 -999 19 10.8 103000 65
2006-06-02 06:54:54 51°16.083 2°54.343 -999 17 10.8 103000 65
2006-06-02 06:54:58 51°16.095 2°54.34 -999 18 10.8 103000 65
2006-06-02 06:55:04 51°16.111 2°54.335 -999 20 10.8 103000 65
2006-06-02 06:55:09 51°16.124 2°54.332 -999 21 10.8 103000 65
2006-06-02 06:55:13 51°16.135 2°54.329 -999 19 10.8 103010 65
2006-06-02 06:55:18 51°16.147 2°54.326 -999 21 10.8 103010 65
2006-06-02 06:55:24 51°16.161 2°54.322 -999 23 10.8 103010 65
2006-06-02 06:55:28 51°16.169 2°54.32 -999 25 10.8 103010 65
2006-06-02 06:55:34 51°16.181 2°54.316 -999 21 10.8 103010 65
2006-06-02 06:55:39 51°16.191 2°54.314 -999 30 10.8 103010 65
2006-06-02 06:55:44 51°16.199 2°54.311 -999 24 10.8 103020 65
2006-06-02 06:55:49 51°16.208 2°54.308 -999 24 10.8 103020 65
2006-06-02 06:55:54 51°16.216 2°54.306 -999 25 10.8 103010 65
2006-06-02 06:55:58 51°16.222 2°54.305 -999 30 10.8 103010 65
2006-06-02 06:56:04 51°16.23 2°54.303 -999 24 10.8 103020 65
2006-06-02 06:56:09 51°16.236 2°54.303 -999 31 10.8 103020 65
2006-06-02 06:56:14 51°16.24 2°54.302 -999 27 10.8 103010 65
2006-06-02 06:56:19 51°16.244 2°54.301 -999 31 10.8 103010 65
2006-06-02 06:56:24 51°16.247 2°54.301 -999 46 10.8 103020 65
2006-06-02 06:56:29 51°16.248 2°54.302 -999 52 10.8 103020 65
2006-06-02 06:56:33 51°16.249 2°54.302 -999 51 10.8 103010 65
2006-06-02 06:56:38 51°16.249 2°54.303 -999 54 10.8 103010 65
2006-06-02 06:56:43 51°16.248 2°54.305 -999 56 10.8 103020 65
2006-06-02 06:56:49 51°16.248 2°54.306 -999 53 10.8 103020 65
2006-06-02 06:56:54 51°16.248 2°54.308 -999 59 10.8 103020 65
2006-06-02 06:56:59 51°16.247 2°54.309 -999 51 10.8 103020 65
2006-06-02 06:57:04 51°16.247 2°54.311 -999 48 10.8 103020 65
2006-06-02 06:57:09 51°16.247 2°54.312 -999 52 10.8 103020 65
2006-06-02 06:57:14 51°16.247 2°54.313 -999 48 10.8 103020 65
2006-06-02 06:57:19 51°16.247 2°54.315 -999 51 10.8 103020 65
2006-06-02 06:57:24 51°16.247 2°54.316 -999 48 10.8 103020 65
2006-06-02 06:57:29 51°16.247 2°54.317 -999 56 10.8 103020 65
2006-06-02 06:57:34 51°16.246 2°54.318 -999 50 10.8 103020 66
2006-06-02 06:57:39 51°16.246 2°54.32 -999 57 10.8 103020 66
2006-06-02 06:57:44 51°16.246 2°54.32 -999 53 10.8 103010 66
2006-06-02 06:57:49 51°16.246 2°54.321 -999 59 10.8 103010 66
2006-06-02 06:57:53 51°16.246 2°54.322 -999 57 10.8 103020 65
2006-06-02 06:57:57 51°16.246 2°54.323 -999 60 10.8 103020 65
2006-06-02 06:58:03 51°16.246 2°54.324 -999 60 10.7 103020 65
2006-06-02 06:58:09 51°16.245 2°54.325 -999 60 10.7 103020 65
2006-06-02 06:58:13 51°16.245 2°54.326 -999 60 10.7 103020 66
2006-06-02 06:58:18 51°16.245 2°54.327 -999 60 10.7 103020 66
2006-06-02 06:58:24 51°16.245 2°54.327 -999 61 10.7 103020 66
2006-06-02 06:58:29 51°16.245 2°54.328 -999 71 10.7 103020 66
2006-06-02 06:58:34 51°16.245 2°54.329 -999 70 10.7 103010 66
2006-06-02 06:58:39 51°16.245 2°54.33 -999 73 10.7 103010 66
2006-06-02 06:58:44 51°16.245 2°54.33 -999 65 10.7 103020 66
2006-06-02 06:58:49 51°16.245 2°54.332 -999 68 10.7 103020 66
2006-06-02 06:58:53 51°16.245 2°54.332 -999 62 10.7 103010 66
2006-06-02 06:58:58 51°16.244 2°54.333 -999 64 10.7 103010 66
2006-06-02 06:59:04 51°16.244 2°54.334 -999 55 10.7 103030 66
2006-06-02 06:59:09 51°16.244 2°54.335 -999 56 10.7 103030 66
2006-06-02 06:59:14 51°16.244 2°54.336 -999 56 10.7 103020 66
2006-06-02 06:59:18 51°16.244 2°54.336 -999 59 10.7 103020 66
2006-06-02 06:59:24 51°16.244 2°54.337 -999 57 10.7 103020 66
2006-06-02 06:59:29 51°16.244 2°54.338 -999 56 10.7 103020 66
2006-06-02 06:59:33 51°16.244 2°54.338 -999 56 10.7 103020 66
2006-06-02 06:59:38 51°16.244 2°54.339 -999 59 10.7 103020 66
2006-06-02 06:59:43 51°16.244 2°54.34 -999 55 10.7 103020 66
2006-06-02 06:59:49 51°16.244 2°54.341 -999 59 10.7 103020 66
2006-06-02 06:59:54 51°16.244 2°54.342 -999 60 10.7 103020 66
2006-06-02 06:59:58 51°16.244 2°54.342 -999 59 10.7 103020 66
2006-06-02 07:00:04 51°16.244 2°54.343 -999 59 10.7 103020 66
2006-06-02 07:00:09 51°16.244 2°54.344 -999 60 10.7 103020 66
2006-06-02 07:00:14 51°16.244 2°54.345 -999 59 10.7 103020 66
2006-06-02 07:00:19 51°16.244 2°54.346 -999 56 10.7 103020 66
2006-06-02 07:00:23 51°16.243 2°54.346 -999 55 10.7 103020 66
2006-06-02 07:00:29 51°16.243 2°54.347 -999 56 10.7 103020 66
2006-06-02 07:00:33 51°16.243 2°54.347 -999 59 10.7 103020 66
2006-06-02 07:00:39 51°16.243 2°54.348 -999 53 10.7 103020 66
2006-06-02 07:00:44 51°16.243 2°54.349 -999 61 10.7 103020 66
2006-06-02 07:00:47 51°16.243 2°54.349 -999 74 10.7 103020 66
2006-06-02 07:00:54 51°16.243 2°54.35 -999 65 10.7 103020 66
2006-06-02 07:00:58 51°16.243 2°54.351 -999 68 10.7 103020 66
2006-06-02 07:01:04 51°16.243 2°54.351 -999 71 10.7 103030 66
2006-06-02 07:01:09 51°16.243 2°54.352 -999 69 10.7 103030 66
2006-06-02 07:01:14 51°16.243 2°54.353 -999 75 10.7 103020 67
2006-06-02 07:01:18 51°16.243 2°54.354 -999 77 10.7 103020 67
2006-06-02 07:01:24 51°16.243 2°54.354 -999 76 10.7 103020 67
2006-06-02 07:01:29 51°16.243 2°54.355 -999 69 10.7 103020 67
2006-06-02 07:01:33 51°16.243 2°54.356 -999 74 10.7 103020 67
2006-06-02 07:01:37 51°16.243 2°54.356 -999 73 10.7 103020 67
2006-06-02 07:01:44 51°16.243 2°54.357 -999 78 10.7 103020 67
2006-06-02 07:01:49 51°16.243 2°54.357 -999 79 10.7 103020 67
2006-06-02 07:01:53 51°16.243 2°54.358 -999 81 10.7 103020 67
2006-06-02 07:01:57 51°16.243 2°54.359 -999 82 10.7 103020 67
2006-06-02 07:02:04 51°16.243 2°54.359 -999 86 10.7 103020 66
2006-06-02 07:02:09 51°16.243 2°54.36 -999 96 10.7 103020 66
2006-06-02 07:02:13 51°16.243 2°54.361 -999 93 10.7 103020 66
2006-06-02 07:02:18 51°16.243 2°54.362 -999 94 10.7 103020 66
2006-06-02 07:02:24 51°16.243 2°54.362 -999 93 10.7 103020 66
2006-06-02 07:02:29 51°16.244 2°54.363 -999 88 10.7 103020 66
2006-06-02 07:02:34 51°16.243 2°54.364 -999 88 10.7 103030 66
2006-06-02 07:02:39 51°16.244 2°54.364 -999 87 10.7 103030 66
2006-06-02 07:02:44 51°16.244 2°54.365 -999 88 10.7 103020 66
2006-06-02 07:02:49 51°16.244 2°54.366 -999 89 10.7 103020 66
2006-06-02 07:02:53 51°16.244 2°54.367 -999 90 10.7 103030 66
2006-06-02 07:02:58 51°16.244 2°54.367 -999 89 10.7 103030 66
2006-06-02 07:03:03 51°16.244 2°54.368 -999 96 10.7 103020 66
2006-06-02 07:03:09 51°16.244 2°54.369 -999 92 10.7 103020 66
2006-06-02 07:03:14 51°16.244 2°54.369 -999 93 10.7 103020 66
2006-06-02 07:03:19 51°16.244 2°54.37 -999 104 10.7 103020 66
2006-06-02 07:03:24 51°16.245 2°54.371 -999 107 10.7 103020 66
2006-06-02 07:03:29 51°16.245 2°54.371 -999 108 10.7 103020 66
2006-06-02 07:03:34 51°16.245 2°54.372 -999 109 10.7 103020 66
2006-06-02 07:03:38 51°16.245 2°54.373 -999 110 10.7 103020 66
2006-06-02 07:03:44 51°16.245 2°54.374 -999 107 10.7 103030 66
2006-06-02 07:03:49 51°16.245 2°54.374 -999 106 10.7 103030 66
2006-06-02 07:03:53 51°16.246 2°54.375 -999 104 10.7 103020 66
2006-06-02 07:03:58 51°16.246 2°54.375 -999 110 10.7 103020 66
2006-06-02 07:04:01 51°16.246 2°54.375 -999 115 10.7 103030 66
2006-06-02 07:04:09 51°16.246 2°54.377 -999 111 10.7 103030 66
2006-06-02 07:04:13 51°16.246 2°54.377 -999 112 10.7 103020 66
2006-06-02 07:04:19 51°16.247 2°54.378 -999 118 10.7 103020 66
2006-06-02 07:04:24 51°16.247 2°54.378 -999 119 10.7 103020 66
2006-06-02 07:04:29 51°16.247 2°54.379 -999 118 10.7 103020 66
2006-06-02 07:04:33 51°16.247 2°54.379 -999 118 10.7 103030 65
2006-06-02 07:04:39 51°16.248 2°54.38 -999 117 10.7 103030 65
2006-06-02 07:04:44 51°16.248 2°54.38 -999 118 10.7 103030 65
2006-06-02 07:04:49 51°16.249 2°54.379 -999 114 10.7 103030 65
2006-06-02 07:04:53 51°16.249 2°54.378 -999 118 10.7 103030 65
2006-06-02 07:04:57 51°16.25 2°54.376 -999 108 10.7 103030 65
2006-06-02 07:05:04 51°16.252 2°54.372 -999 102 10.8 103020 66
2006-06-02 07:05:09 51°16.253 2°54.367 -999 90 10.8 103020 66
2006-06-02 07:05:13 51°16.255 2°54.363 -999 90 10.8 103030 66
2006-06-02 07:05:17 51°16.257 2°54.358 -999 64 10.8 103030 66
2006-06-02 07:05:24 51°16.26 2°54.348 -999 76 10.8 103020 66
2006-06-02 07:05:29 51°16.263 2°54.34 -999 68 10.8 103020 66
2006-06-02 07:05:34 51°16.266 2°54.33 -999 64 10.8 103030 66
2006-06-02 07:05:38 51°16.27 2°54.322 -999 49 10.8 103030 66
2006-06-02 07:05:44 51°16.276 2°54.309 -999 51 10.8 103020 66
2006-06-02 07:05:49 51°16.282 2°54.297 -999 42 10.8 103020 66
2006-06-02 07:05:54 51°16.289 2°54.285 -999 41 10.8 103020 66
2006-06-02 07:05:59 51°16.296 2°54.272 -999 40 10.8 103020 66
2006-06-02 07:06:04 51°16.304 2°54.257 -999 37 10.8 103020 66
2006-06-02 07:06:09 51°16.311 2°54.242 -999 40 10.8 103020 66
2006-06-02 07:06:13 51°16.317 2°54.23 -999 34 10.8 103030 65
2006-06-02 07:06:19 51°16.328 2°54.21 -999 34 10.8 103030 65
2006-06-02 07:06:24 51°16.337 2°54.194 -999 37 10.8 103020 66
2006-06-02 07:06:29 51°16.347 2°54.178 -999 36 10.8 103020 66
2006-06-02 07:06:33 51°16.355 2°54.165 -999 32 10.8 103020 66
2006-06-02 07:06:38 51°16.366 2°54.148 -999 29 10.8 103020 66
2006-06-02 07:06:44 51°16.379 2°54.128 -999 31 10.8 103020 65
2006-06-02 07:06:49 51°16.391 2°54.111 -999 31 10.8 103020 65
2006-06-02 07:06:54 51°16.403 2°54.094 -999 32 10.7 103020 65
2006-06-02 07:06:59 51°16.414 2°54.078 -999 27 10.7 103020 65
2006-06-02 07:07:04 51°16.426 2°54.062 -999 31 10.7 103020 66
2006-06-02 07:07:09 51°16.438 2°54.044 -999 23 10.7 103020 66
2006-06-02 07:07:13 51°16.448 2°54.031 -999 29 10.7 103020 66
2006-06-02 07:07:18 51°16.461 2°54.015 -999 22 10.7 103020 66
2006-06-02 07:07:24 51°16.476 2°53.994 -999 23 10.7 103020 66
2006-06-02 07:07:29 51°16.489 2°53.976 -999 23 10.7 103020 66
2006-06-02 07:07:33 51°16.5 2°53.963 -999 27 10.7 103020 66
2006-06-02 07:07:37 51°16.51 2°53.948 -999 28 10.7 103020 66
2006-06-02 07:07:43 51°16.526 2°53.926 -999 26 10.7 103020 66
2006-06-02 07:07:49 51°16.542 2°53.905 -999 30 10.7 103020 66
2006-06-02 07:07:53 51°16.553 2°53.89 -999 26 10.7 103020 66
2006-06-02 07:07:57 51°16.564 2°53.875 -999 29 10.7 103020 66
2006-06-02 07:08:03 51°16.58 2°53.854 -999 27 10.7 103020 66
2006-06-02 07:08:09 51°16.597 2°53.831 -999 26 10.7 103020 66
2006-06-02 07:08:14 51°16.61 2°53.812 -999 27 10.7 103020 66
2006-06-02 07:08:18 51°16.621 2°53.797 -999 28 10.7 103020 66
2006-06-02 07:08:24 51°16.637 2°53.775 -999 27 10.7 103020 66
2006-06-02 07:08:29 51°16.651 2°53.757 -999 26 10.7 103020 66
2006-06-02 07:08:34 51°16.665 2°53.738 -999 23 10.7 103030 66
2006-06-02 07:08:39 51°16.678 2°53.719 -999 34 10.7 103030 66
2006-06-02 07:08:44 51°16.692 2°53.7 -999 40 10.7 103020 67
2006-06-02 07:08:49 51°16.705 2°53.681 -999 27 10.7 103020 67
2006-06-02 07:08:53 51°16.716 2°53.666 -999 29 10.7 103020 67
2006-06-02 07:08:59 51°16.733 2°53.642 -999 33 10.7 103020 67
2006-06-02 07:09:04 51°16.747 2°53.625 -999 29 10.7 103030 67
2006-06-02 07:09:09 51°16.761 2°53.606 -999 27 10.7 103030 67
2006-06-02 07:09:13 51°16.772 2°53.591 -999 32 10.7 103020 67
2006-06-02 07:09:19 51°16.789 2°53.569 -999 32 10.7 103020 67
2006-06-02 07:09:23 51°16.801 2°53.555 -999 38 10.7 103020 67
2006-06-02 07:09:29 51°16.818 2°53.533 -999 34 10.7 103020 67
2006-06-02 07:09:34 51°16.832 2°53.515 -999 34 10.8 103020 67
2006-06-02 07:09:39 51°16.846 2°53.496 -999 21 10.8 103020 67
2006-06-02 07:09:44 51°16.86 2°53.477 -999 24 10.7 103030 67
2006-06-02 07:09:49 51°16.874 2°53.459 -999 22 10.7 103030 67
2006-06-02 07:09:53 51°16.885 2°53.443 -999 21 10.7 103020 67
2006-06-02 07:09:59 51°16.901 2°53.422 -999 25 10.7 103020 67
2006-06-02 07:10:02 51°16.91 2°53.409 -999 20 10.7 103010 68
2006-06-02 07:10:09 51°16.929 2°53.383 -999 19 10.7 103010 68
2006-06-02 07:10:14 51°16.942 2°53.364 -999 17 10.7 103010 68
2006-06-02 07:10:18 51°16.953 2°53.349 -999 18 10.7 103010 68
2006-06-02 07:10:23 51°16.966 2°53.331 -999 18 10.7 103020 67
2006-06-02 07:10:29 51°16.982 2°53.309 -999 20 10.7 103020 67
2006-06-02 07:10:33 51°16.993 2°53.294 -999 17 10.7 103020 67
2006-06-02 07:10:39 51°17.009 2°53.271 -999 20 10.7 103020 67
2006-06-02 07:10:42 51°17.017 2°53.261 -999 24 10.7 103030 67
2006-06-02 07:10:47 51°17.031 2°53.242 -999 21 10.7 103030 67
2006-06-02 07:10:54 51°17.051 2°53.217 -999 25 10.7 103020 67
2006-06-02 07:10:59 51°17.066 2°53.198 -999 21 10.7 103020 67
2006-06-02 07:11:04 51°17.08 2°53.18 -999 24 10.7 103020 67
2006-06-02 07:11:09 51°17.094 2°53.162 -999 21 10.7 103020 67
2006-06-02 07:11:13 51°17.105 2°53.147 -999 22 10.7 103020 67
2006-06-02 07:11:18 51°17.119 2°53.128 -999 19 10.7 103020 67
2006-06-02 07:11:24 51°17.136 2°53.106 -999 25 10.7 103020 66
2006-06-02 07:11:29 51°17.15 2°53.087 -999 30 10.7 103020 66
2006-06-02 07:11:33 51°17.161 2°53.072 -999 30 10.7 103020 66
2006-06-02 07:11:39 51°17.178 2°53.048 -999 28 10.7 103020 66
2006-06-02 07:11:44 51°17.191 2°53.029 -999 27 10.7 103030 66
2006-06-02 07:11:49 51°17.205 2°53.01 -999 27 10.7 103030 66
2006-06-02 07:11:53 51°17.215 2°52.993 -999 28 10.7 103020 66
2006-06-02 07:11:58 51°17.228 2°52.972 -999 34 10.7 103020 66
2006-06-02 07:12:03 51°17.24 2°52.952 -999 23 10.7 103020 66
2006-06-02 07:12:09 51°17.255 2°52.927 -999 25 10.7 103020 66
2006-06-02 07:12:14 51°17.267 2°52.906 -999 23 10.7 103020 66
2006-06-02 07:12:19 51°17.279 2°52.884 -999 22 10.7 103020 66
2006-06-02 07:12:24 51°17.292 2°52.863 -999 18 10.7 103010 66
2006-06-02 07:12:29 51°17.304 2°52.843 -999 19 10.7 103010 66
2006-06-02 07:12:33 51°17.314 2°52.825 -999 18 10.7 103020 67
2006-06-02 07:12:39 51°17.328 2°52.8 -999 20 10.7 103020 67
2006-06-02 07:12:43 51°17.338 2°52.783 -999 21 10.7 103010 67
2006-06-02 07:12:49 51°17.353 2°52.757 -999 27 10.7 103010 67
2006-06-02 07:12:54 51°17.366 2°52.736 -999 20 10.7 103020 67
2006-06-02 07:12:58 51°17.376 2°52.719 -999 20 10.7 103020 67
2006-06-02 07:13:04 51°17.39 2°52.694 -999 20 10.7 103020 66
2006-06-02 07:13:09 51°17.403 2°52.673 -999 23 10.7 103020 66
2006-06-02 07:13:14 51°17.414 2°52.651 -999 24 10.7 103020 66
2006-06-02 07:13:19 51°17.427 2°52.629 -999 25 10.7 103020 66
2006-06-02 07:13:21 51°17.432 2°52.621 -999 22 10.7 103020 66
2006-06-02 07:13:29 51°17.452 2°52.586 -999 27 10.7 103020 66
2006-06-02 07:13:33 51°17.461 2°52.569 -999 26 10.7 103020 66
2006-06-02 07:13:39 51°17.477 2°52.545 -999 30 10.7 103020 66
2006-06-02 07:13:43 51°17.486 2°52.527 -999 25 10.7 103010 66
2006-06-02 07:13:49 51°17.502 2°52.503 -999 24 10.7 103010 66
2006-06-02 07:13:53 51°17.512 2°52.487 -999 26 10.7 103020 66
2006-06-02 07:13:59 51°17.526 2°52.461 -999 19 10.7 103020 66
2006-06-02 07:14:04 51°17.539 2°52.441 -999 24 10.7 103020 66
2006-06-02 07:14:09 51°17.551 2°52.421 -999 19 10.7 103020 66
2006-06-02 07:14:14 51°17.564 2°52.4 -999 20 10.7 103020 66
2006-06-02 07:14:19 51°17.576 2°52.38 -999 24 10.7 103020 66
2006-06-02 07:14:24 51°17.589 2°52.359 -999 23 10.7 103030 66
2006-06-02 07:14:29 51°17.601 2°52.338 -999 20 10.7 103030 66
2006-06-02 07:14:33 51°17.611 2°52.322 -999 21 10.7 103030 66
2006-06-02 07:14:37 51°17.62 2°52.306 -999 23 10.7 103030 66
2006-06-02 07:14:43 51°17.635 2°52.281 -999 23 10.7 103020 66
2006-06-02 07:14:49 51°17.65 2°52.257 -999 24 10.7 103020 66
2006-06-02 07:14:54 51°17.661 2°52.237 -999 23 10.7 103030 66
2006-06-02 07:14:59 51°17.674 2°52.216 -999 22 10.7 103030 66
2006-06-02 07:15:04 51°17.686 2°52.195 -999 21 10.7 103030 66
2006-06-02 07:15:09 51°17.698 2°52.175 -999 22 10.7 103030 66
2006-06-02 07:15:14 51°17.711 2°52.154 -999 21 10.7 103030 66
2006-06-02 07:15:18 51°17.721 2°52.138 -999 21 10.7 103030 66
2006-06-02 07:15:22 51°17.73 2°52.121 -999 23 10.7 103020 66
2006-06-02 07:15:29 51°17.748 2°52.093 -999 21 10.7 103020 66
2006-06-02 07:15:33 51°17.757 2°52.076 -999 20 10.7 103030 66
2006-06-02 07:15:38 51°17.769 2°52.056 -999 20 10.7 103030 66
2006-06-02 07:15:44 51°17.784 2°52.03 -999 22 10.7 103030 66
2006-06-02 07:15:49 51°17.796 2°52.01 -999 22 10.7 103030 66
2006-06-02 07:15:53 51°17.806 2°51.992 -999 23 10.7 103020 66
2006-06-02 07:15:59 51°17.82 2°51.967 -999 25 10.7 103020 66
2006-06-02 07:16:04 51°17.832 2°51.945 -999 22 10.7 103030 66
2006-06-02 07:16:09 51°17.844 2°51.924 -999 23 10.7 103030 66
2006-06-02 07:16:13 51°17.854 2°51.908 -999 20 10.7 103020 66
2006-06-02 07:16:18 51°17.866 2°51.888 -999 20 10.7 103020 66
2006-06-02 07:16:24 51°17.882 2°51.863 -999 20 10.7 103020 66
2006-06-02 07:16:29 51°17.894 2°51.842 -999 16 10.7 103020 66
2006-06-02 07:16:34 51°17.906 2°51.822 -999 17 10.7 103030 66
2006-06-02 07:16:38 51°17.916 2°51.806 -999 18 10.7 103030 66
2006-06-02 07:16:43 51°17.929 2°51.785 -999 16 10.7 103030 66
2006-06-02 07:16:49 51°17.943 2°51.762 -999 16 10.7 103030 66
2006-06-02 07:16:53 51°17.954 2°51.746 -999 21 10.7 103030 66
2006-06-02 07:16:57 51°17.963 2°51.729 -999 24 10.7 103030 66
2006-06-02 07:17:04 51°17.981 2°51.7 -999 17 10.7 103030 66
2006-06-02 07:17:09 51°17.993 2°51.679 -999 22 10.7 103030 66
2006-06-02 07:17:13 51°18.003 2°51.664 -999 22 10.7 103030 65
2006-06-02 07:17:17 51°18.014 2°51.647 -999 23 10.7 103030 65
2006-06-02 07:17:24 51°18.031 2°51.619 -999 18 10.7 103040 65
2006-06-02 07:17:29 51°18.044 2°51.598 -999 23 10.7 103040 65
2006-06-02 07:17:34 51°18.056 2°51.578 -999 23 10.7 103040 65
2006-06-02 07:17:39 51°18.069 2°51.557 -999 21 10.7 103040 65
2006-06-02 07:17:44 51°18.081 2°51.536 -999 23 10.7 103030 65
2006-06-02 07:17:49 51°18.093 2°51.516 -999 17 10.7 103030 65
2006-06-02 07:17:54 51°18.106 2°51.496 -999 17 10.7 103030 65
2006-06-02 07:17:58 51°18.116 2°51.48 -999 17 10.7 103030 65
2006-06-02 07:18:02 51°18.126 2°51.464 -999 19 10.7 103030 65
2006-06-02 07:18:09 51°18.144 2°51.436 -999 18 10.7 103030 65
2006-06-02 07:18:13 51°18.155 2°51.421 -999 19 10.7 103020 65
2006-06-02 07:18:18 51°18.168 2°51.401 -999 24 10.7 103020 65
2006-06-02 07:18:24 51°18.183 2°51.378 -999 29 10.7 103020 65
2006-06-02 07:18:29 51°18.196 2°51.358 -999 28 10.7 103020 65
2006-06-02 07:18:33 51°18.206 2°51.343 -999 27 10.7 103040 65
2006-06-02 07:18:38 51°18.219 2°51.324 -999 25 10.7 103040 65
2006-06-02 07:18:43 51°18.233 2°51.304 -999 24 10.7 103040 65
2006-06-02 07:18:49 51°18.248 2°51.283 -999 28 10.7 103040 65
2006-06-02 07:18:54 51°18.26 2°51.265 -999 29 10.7 103020 65
2006-06-02 07:18:59 51°18.272 2°51.249 -999 29 10.7 103020 65
2006-06-02 07:19:04 51°18.283 2°51.232 -999 24 10.7 103030 65
2006-06-02 07:19:09 51°18.295 2°51.216 -999 27 10.7 103030 65
2006-06-02 07:19:14 51°18.306 2°51.201 -999 24 10.7 103030 65
2006-06-02 07:19:18 51°18.314 2°51.189 -999 25 10.7 103030 65
2006-06-02 07:19:23 51°18.325 2°51.176 -999 27 10.7 103030 65
2006-06-02 07:19:29 51°18.337 2°51.159 -999 29 10.7 103030 65
2006-06-02 07:19:34 51°18.346 2°51.146 -999 31 10.7 103030 65
2006-06-02 07:19:39 51°18.355 2°51.134 -999 29 10.7 103030 65
2006-06-02 07:19:44 51°18.363 2°51.122 -999 35 10.7 103030 65
2006-06-02 07:19:48 51°18.369 2°51.113 -999 37 10.7 103030 65
2006-06-02 07:19:53 51°18.377 2°51.102 -999 42 10.7 103030 65
2006-06-02 07:19:57 51°18.383 2°51.094 -999 39 10.7 103030 65
2006-06-02 07:20:04 51°18.392 2°51.08 -999 39 10.7 103040 64
2006-06-02 07:20:09 51°18.399 2°51.071 -999 36 10.7 103040 64
2006-06-02 07:20:14 51°18.405 2°51.063 -999 39 10.7 103040 65
2006-06-02 07:20:18 51°18.41 2°51.056 -999 44 10.7 103040 65
2006-06-02 07:20:24 51°18.416 2°51.047 -999 44 10.7 103030 65
2006-06-02 07:20:29 51°18.422 2°51.04 -999 43 10.7 103030 65
2006-06-02 07:20:33 51°18.426 2°51.034 -999 49 10.7 103030 66
2006-06-02 07:20:37 51°18.43 2°51.029 -999 48 10.7 103030 66
2006-06-02 07:20:44 51°18.437 2°51.021 -999 49 10.7 103020 65
2006-06-02 07:20:49 51°18.442 2°51.015 -999 48 10.7 103020 65
2006-06-02 07:20:54 51°18.447 2°51.01 -999 45 10.7 103030 65
2006-06-02 07:20:58 51°18.451 2°51.007 -999 59 10.7 103030 65
2006-06-02 07:21:04 51°18.456 2°51.002 -999 51 10.6 103020 65
2006-06-02 07:21:09 51°18.46 2°50.999 -999 56 10.6 103020 65
2006-06-02 07:21:14 51°18.463 2°50.996 -999 53 10.6 103030 65
2006-06-02 07:21:19 51°18.465 2°50.995 -999 49 10.6 103030 65
2006-06-02 07:21:24 51°18.467 2°50.994 -999 52 10.6 103030 66
2006-06-02 07:21:29 51°18.468 2°50.993 -999 55 10.6 103030 66
2006-06-02 07:21:33 51°18.469 2°50.993 -999 58 10.6 103030 66
2006-06-02 07:21:38 51°18.469 2°50.992 -999 59 10.6 103030 66
2006-06-02 07:21:43 51°18.469 2°50.992 -999 62 10.6 103040 66
2006-06-02 07:21:49 51°18.47 2°50.991 -999 58 10.6 103040 66
2006-06-02 07:21:54 51°18.47 2°50.991 -999 59 10.6 103030 66
2006-06-02 07:21:59 51°18.47 2°50.99 -999 59 10.6 103030 66
2006-06-02 07:22:03 51°18.471 2°50.99 -999 59 10.6 103030 66
2006-06-02 07:22:09 51°18.471 2°50.989 -999 57 10.6 103030 66
2006-06-02 07:22:14 51°18.471 2°50.988 -999 58 10.6 103030 66
2006-06-02 07:22:18 51°18.472 2°50.988 -999 57 10.6 103030 66
2006-06-02 07:22:24 51°18.472 2°50.987 -999 57 10.6 103030 66
2006-06-02 07:22:29 51°18.473 2°50.987 -999 59 10.6 103030 66
2006-06-02 07:22:34 51°18.473 2°50.986 -999 59 10.5 103030 66
2006-06-02 07:22:38 51°18.473 2°50.986 -999 59 10.5 103030 66
2006-06-02 07:22:44 51°18.474 2°50.985 -999 59 10.6 103030 66
2006-06-02 07:22:49 51°18.474 2°50.985 -999 59 10.6 103030 66
2006-06-02 07:22:54 51°18.474 2°50.984 -999 59 10.6 103030 66
2006-06-02 07:23:00 51°18.474 2°50.984 -999 59 10.6 103030 66
2006-06-02 07:23:04 51°18.475 2°50.983 -999 54 10.6 103030 66
2006-06-02 07:23:09 51°18.475 2°50.982 -999 61 10.6 103030 66
2006-06-02 07:23:14 51°18.476 2°50.982 -999 61 10.6 103030 66
2006-06-02 07:23:19 51°18.476 2°50.981 -999 63 10.6 103030 66
2006-06-02 07:23:24 51°18.476 2°50.981 -999 66 10.6 103030 66
2006-06-02 07:23:29 51°18.476 2°50.98 -999 69 10.6 103030 66
2006-06-02 07:23:34 51°18.477 2°50.98 -999 70 10.6 103030 66
2006-06-02 07:23:39 51°18.477 2°50.98 -999 79 10.6 103030 66
2006-06-02 07:23:44 51°18.477 2°50.979 -999 82 10.6 103030 66
2006-06-02 07:23:49 51°18.478 2°50.978 -999 81 10.6 103030 66
2006-06-02 07:23:54 51°18.478 2°50.978 -999 80 10.6 103030 66
2006-06-02 07:23:59 51°18.478 2°50.977 -999 80 10.6 103030 66
2006-06-02 07:24:04 51°18.479 2°50.978 -999 80 10.7 103030 66
2006-06-02 07:24:09 51°18.479 2°50.977 -999 80 10.7 103030 66
2006-06-02 07:24:14 51°18.48 2°50.976 -999 80 10.7 103040 66
2006-06-02 07:24:18 51°18.48 2°50.976 -999 74 10.7 103040 66
2006-06-02 07:24:24 51°18.48 2°50.976 -999 74 10.7 103030 66
2006-06-02 07:24:29 51°18.48 2°50.976 -999 73 10.7 103030 66
2006-06-02 07:24:34 51°18.481 2°50.975 -999 77 10.7 103040 66
2006-06-02 07:24:39 51°18.481 2°50.975 -999 75 10.7 103040 66
2006-06-02 07:24:44 51°18.482 2°50.975 -999 75 10.7 103040 66
2006-06-02 07:24:49 51°18.482 2°50.974 -999 76 10.7 103040 66
2006-06-02 07:24:53 51°18.482 2°50.974 -999 75 10.7 103030 66
2006-06-02 07:24:59 51°18.482 2°50.973 -999 72 10.7 103030 66
2006-06-02 07:25:03 51°18.482 2°50.973 -999 75 10.7 103040 66
2006-06-02 07:25:09 51°18.483 2°50.972 -999 79 10.7 103040 66
2006-06-02 07:25:13 51°18.483 2°50.972 -999 73 10.7 103040 66
2006-06-02 07:25:18 51°18.483 2°50.972 -999 74 10.7 103040 66
2006-06-02 07:25:24 51°18.483 2°50.971 -999 74 10.8 103030 66
2006-06-02 07:25:29 51°18.484 2°50.97 -999 75 10.8 103030 66
2006-06-02 07:25:34 51°18.484 2°50.97 -999 76 10.8 103040 66
2006-06-02 07:25:39 51°18.484 2°50.97 -999 81 10.8 103040 66
2006-06-02 07:25:44 51°18.484 2°50.97 -999 79 10.8 103040 66
2006-06-02 07:25:49 51°18.485 2°50.969 -999 79 10.8 103040 66
2006-06-02 07:25:54 51°18.485 2°50.968 -999 78 10.8 103040 66
2006-06-02 07:25:58 51°18.485 2°50.968 -999 79 10.8 103040 66
2006-06-02 07:26:03 51°18.486 2°50.968 -999 79 10.8 103040 66
2006-06-02 07:26:08 51°18.486 2°50.967 -999 79 10.8 103040 66
2006-06-02 07:26:14 51°18.487 2°50.967 -999 79 10.8 103040 66
2006-06-02 07:26:18 51°18.486 2°50.966 -999 79 10.8 103040 66
2006-06-02 07:26:23 51°18.487 2°50.967 -999 79 10.7 103050 66
2006-06-02 07:26:28 51°18.487 2°50.966 -999 74 10.7 103050 66
2006-06-02 07:26:34 51°18.487 2°50.965 -999 75 10.7 103040 65
2006-06-02 07:26:39 51°18.487 2°50.964 -999 73 10.7 103040 65
2006-06-02 07:26:44 51°18.487 2°50.964 -999 72 10.7 103040 66
2006-06-02 07:26:49 51°18.488 2°50.963 -999 72 10.7 103040 66
2006-06-02 07:26:54 51°18.488 2°50.963 -999 73 10.8 103040 66
2006-06-02 07:26:57 51°18.488 2°50.962 -999 76 10.8 103040 66
2006-06-02 07:27:04 51°18.488 2°50.962 -999 79 10.8 103040 66
2006-06-02 07:27:09 51°18.489 2°50.961 -999 79 10.8 103040 66
2006-06-02 07:27:14 51°18.489 2°50.961 -999 79 10.8 103040 65
2006-06-02 07:27:19 51°18.489 2°50.961 -999 79 10.8 103040 65
2006-06-02 07:27:24 51°18.489 2°50.96 -999 78 10.8 103040 65
2006-06-02 07:27:28 51°18.489 2°50.959 -999 84 10.8 103040 65
2006-06-02 07:27:33 51°18.49 2°50.959 -999 82 10.8 103050 65
2006-06-02 07:27:39 51°18.49 2°50.958 -999 87 10.8 103050 65
2006-06-02 07:27:44 51°18.49 2°50.958 -999 95 10.8 103040 65
2006-06-02 07:27:49 51°18.49 2°50.957 -999 95 10.8 103040 65
2006-06-02 07:27:54 51°18.49 2°50.957 -999 97 10.8 103050 66
2006-06-02 07:27:59 51°18.491 2°50.957 -999 97 10.8 103050 66
2006-06-02 07:28:04 51°18.491 2°50.956 -999 97 10.8 103040 66
2006-06-02 07:28:09 51°18.492 2°50.956 -999 106 10.8 103040 66
2006-06-02 07:28:13 51°18.492 2°50.955 -999 107 10.8 103050 66
2006-06-02 07:28:17 51°18.492 2°50.955 -999 107 10.8 103050 66
2006-06-02 07:28:24 51°18.492 2°50.954 -999 107 10.8 103040 66
2006-06-02 07:28:29 51°18.493 2°50.954 -999 115 10.8 103040 66
2006-06-02 07:28:34 51°18.493 2°50.953 -999 117 10.8 103050 66
2006-06-02 07:28:39 51°18.493 2°50.952 -999 121 10.8 103050 66
2006-06-02 07:28:44 51°18.493 2°50.952 -999 128 10.8 103040 66
2006-06-02 07:28:48 51°18.493 2°50.951 -999 127 10.8 103040 66
2006-06-02 07:28:53 51°18.494 2°50.951 -999 116 10.8 103040 66
2006-06-02 07:28:58 51°18.494 2°50.95 -999 118 10.8 103040 66
2006-06-02 07:29:01 51°18.494 2°50.95 -999 118 10.8 103040 66
2006-06-02 07:29:09 51°18.495 2°50.949 -999 118 10.8 103040 66
2006-06-02 07:29:13 51°18.495 2°50.949 -999 116 10.9 103040 66
2006-06-02 07:29:18 51°18.495 2°50.948 -999 115 10.9 103040 66
2006-06-02 07:29:24 51°18.495 2°50.948 -999 119 10.9 103050 66
2006-06-02 07:29:29 51°18.495 2°50.947 -999 121 10.9 103050 66
2006-06-02 07:29:34 51°18.496 2°50.946 -999 121 10.9 103040 66
2006-06-02 07:29:38 51°18.496 2°50.946 -999 119 10.9 103040 66
2006-06-02 07:29:44 51°18.497 2°50.945 -999 112 10.9 103040 66
2006-06-02 07:29:49 51°18.496 2°50.944 -999 117 10.9 103040 66
2006-06-02 07:29:54 51°18.497 2°50.944 -999 108 10.9 103040 65
2006-06-02 07:29:59 51°18.497 2°50.943 -999 108 10.9 103040 65
2006-06-02 07:30:03 51°18.497 2°50.942 -999 108 10.9 103050 65
2006-06-02 07:30:09 51°18.497 2°50.942 -999 110 10.9 103050 65
2006-06-02 07:30:14 51°18.498 2°50.941 -999 118 10.9 103050 65
2006-06-02 07:30:17 51°18.498 2°50.941 -999 113 10.9 103050 65
2006-06-02 07:30:22 51°18.498 2°50.94 -999 114 10.9 103040 65
2006-06-02 07:30:29 51°18.499 2°50.937 -999 111 10.9 103040 65
2006-06-02 07:30:33 51°18.5 2°50.936 -999 106 10.9 103050 65
2006-06-02 07:30:39 51°18.501 2°50.933 -999 91 10.9 103050 65
2006-06-02 07:30:42 51°18.501 2°50.931 -999 90 10.9 103050 65
2006-06-02 07:30:49 51°18.504 2°50.927 -999 78 10.9 103050 65
2006-06-02 07:30:54 51°18.505 2°50.923 -999 72 10.9 103050 65
2006-06-02 07:30:59 51°18.507 2°50.919 -999 38 10.9 103050 65
2006-06-02 07:31:04 51°18.509 2°50.916 -999 57 10.9 103040 65
2006-06-02 07:31:09 51°18.511 2°50.912 -999 57 10.9 103040 65
2006-06-02 07:31:14 51°18.514 2°50.907 -999 65 11 103050 65
2006-06-02 07:31:17 51°18.517 2°50.903 -999 57 11 103050 65
2006-06-02 07:31:24 51°18.523 2°50.896 -999 40 11 103050 65
2006-06-02 07:31:29 51°18.529 2°50.891 -999 38 11 103050 65
2006-06-02 07:31:34 51°18.535 2°50.886 -999 34 11 103050 66
2006-06-02 07:31:39 51°18.543 2°50.881 -999 30 11 103050 66
2006-06-02 07:31:44 51°18.551 2°50.878 -999 32 11 103040 66
2006-06-02 07:31:48 51°18.557 2°50.876 -999 22 11 103040 66
2006-06-02 07:31:53 51°18.567 2°50.874 -999 21 10.9 103050 65
2006-06-02 07:31:57 51°18.575 2°50.874 -999 17 10.9 103050 65
2006-06-02 07:32:04 51°18.589 2°50.876 -999 12 10.9 103040 65
2006-06-02 07:32:09 51°18.6 2°50.881 -999 6 10.9 103040 65
2006-06-02 07:32:14 51°18.611 2°50.887 -999 7 10.9 103050 66
2006-06-02 07:32:18 51°18.619 2°50.895 -999 3 10.9 103050 66
2006-06-02 07:32:24 51°18.631 2°50.908 -999 1 10.9 103040 66
2006-06-02 07:32:29 51°18.641 2°50.921 -999 360 10.9 103040 66
2006-06-02 07:32:33 51°18.649 2°50.934 -999 358 10.9 103050 66
2006-06-02 07:32:38 51°18.657 2°50.951 -999 354 10.9 103050 66
2006-06-02 07:32:44 51°18.666 2°50.974 -999 354 10.9 103050 66
2006-06-02 07:32:49 51°18.673 2°50.994 -999 354 10.9 103050 66
2006-06-02 07:32:53 51°18.679 2°51.011 -999 356 10.9 103050 66
2006-06-02 07:32:57 51°18.685 2°51.028 -999 358 10.9 103050 66
2006-06-02 07:33:01 51°18.691 2°51.046 -999 357 10.9 103040 66
2006-06-02 07:33:09 51°18.703 2°51.084 -999 358 10.9 103040 66
2006-06-02 07:33:13 51°18.71 2°51.102 -999 358 10.9 103040 66
2006-06-02 07:33:17 51°18.716 2°51.121 -999 352 10.9 103040 66
2006-06-02 07:33:21 51°18.723 2°51.14 -999 357 10.8 103040 66
2006-06-02 07:33:29 51°18.736 2°51.18 -999 1 10.8 103040 66
2006-06-02 07:33:33 51°18.742 2°51.199 -999 1 10.9 103050 66
2006-06-02 07:33:37 51°18.748 2°51.22 -999 358 10.9 103050 66
2006-06-02 07:33:44 51°18.758 2°51.256 -999 -999 10.9 103040 66
2006-06-02 07:33:49 51°18.764 2°51.282 -999 354 10.9 103040 66
2006-06-02 07:33:54 51°18.769 2°51.308 -999 354 10.9 103050 66
2006-06-02 07:33:59 51°18.774 2°51.335 -999 352 10.9 103050 66
2006-06-02 07:34:04 51°18.779 2°51.362 -999 352 10.9 103050 66
2006-06-02 07:34:09 51°18.783 2°51.389 -999 353 10.9 103050 66
2006-06-02 07:34:13 51°18.786 2°51.411 -999 344 10.9 103040 66
2006-06-02 07:34:18 51°18.79 2°51.439 -999 350 10.9 103040 66
2006-06-02 07:34:24 51°18.796 2°51.471 -999 350 10.9 103050 66
2006-06-02 07:34:29 51°18.799 2°51.498 -999 354 10.9 103050 66
2006-06-02 07:34:34 51°18.804 2°51.525 -999 352 10.9 103040 66
2006-06-02 07:34:38 51°18.807 2°51.547 -999 351 10.9 103040 66
2006-06-02 07:34:44 51°18.812 2°51.58 -999 354 10.9 103040 65
2006-06-02 07:34:49 51°18.817 2°51.607 -999 356 10.9 103040 65
2006-06-02 07:34:54 51°18.821 2°51.634 -999 353 10.9 103040 65
2006-06-02 07:34:59 51°18.825 2°51.662 -999 357 10.9 103040 65
2006-06-02 07:35:03 51°18.829 2°51.684 -999 352 10.9 103050 65
2006-06-02 07:35:09 51°18.834 2°51.716 -999 354 10.9 103050 65
2006-06-02 07:35:13 51°18.838 2°51.738 -999 354 11 103050 66
2006-06-02 07:35:17 51°18.841 2°51.76 -999 348 11 103050 66
2006-06-02 07:35:24 51°18.847 2°51.799 -999 353 11 103040 65
2006-06-02 07:35:29 51°18.852 2°51.825 -999 349 11 103040 65
2006-06-02 07:35:34 51°18.856 2°51.853 -999 354 11 103050 65
2006-06-02 07:35:39 51°18.861 2°51.88 -999 351 11 103050 65
2006-06-02 07:35:41 51°18.863 2°51.891 -999 345 11 103050 65
2006-06-02 07:35:48 51°18.87 2°51.929 -999 348 11 103050 65
2006-06-02 07:35:54 51°18.876 2°51.961 -999 357 11 103050 65
2006-06-02 07:35:59 51°18.882 2°51.988 -999 347 11 103050 65
2006-06-02 07:36:03 51°18.886 2°52.009 -999 355 11 103050 65
2006-06-02 07:36:08 51°18.891 2°52.036 -999 350 11 103050 65
2006-06-02 07:36:14 51°18.897 2°52.068 -999 355 11 103050 65
2006-06-02 07:36:19 51°18.902 2°52.095 -999 349 11 103050 65
2006-06-02 07:36:24 51°18.906 2°52.122 -999 356 11 103050 65
2006-06-02 07:36:29 51°18.912 2°52.148 -999 352 11 103050 65
2006-06-02 07:36:34 51°18.916 2°52.175 -999 356 11.1 103040 65
2006-06-02 07:36:39 51°18.921 2°52.202 -999 356 11.1 103040 65
2006-06-02 07:36:44 51°18.926 2°52.228 -999 354 11.1 103060 65
2006-06-02 07:36:49 51°18.932 2°52.255 -999 359 11.1 103060 65
2006-06-02 07:36:53 51°18.936 2°52.276 -999 354 11.1 103050 65
2006-06-02 07:36:57 51°18.94 2°52.297 -999 355 11.1 103050 65
2006-06-02 07:37:04 51°18.947 2°52.335 -999 2 11.1 103050 65
2006-06-02 07:37:09 51°18.952 2°52.361 -999 -999 11.1 103050 65
2006-06-02 07:37:14 51°18.957 2°52.388 -999 356 11.1 103050 65
2006-06-02 07:37:19 51°18.962 2°52.414 -999 359 11.1 103050 65
2006-06-02 07:37:24 51°18.967 2°52.441 -999 354 11.1 103050 65
2006-06-02 07:37:29 51°18.973 2°52.467 -999 1 11.1 103050 65
2006-06-02 07:37:34 51°18.978 2°52.494 -999 357 11.1 103050 64
2006-06-02 07:37:38 51°18.981 2°52.515 -999 2 11.1 103050 64
2006-06-02 07:37:42 51°18.986 2°52.536 -999 7 11.1 103060 64
2006-06-02 07:37:49 51°18.993 2°52.573 -999 2 11.1 103060 64
2006-06-02 07:37:53 51°18.997 2°52.594 -999 357 11 103050 64
2006-06-02 07:37:58 51°19.002 2°52.621 -999 1 11 103050 64
2006-06-02 07:38:04 51°19.008 2°52.653 -999 360 11.1 103050 64
2006-06-02 07:38:09 51°19.014 2°52.679 -999 352 11.1 103050 64
2006-06-02 07:38:13 51°19.017 2°52.701 -999 355 11 103060 64
2006-06-02 07:38:18 51°19.022 2°52.727 -999 351 11 103060 64
2006-06-02 07:38:22 51°19.025 2°52.748 -999 355 11.1 103060 64
2006-06-02 07:38:29 51°19.032 2°52.785 -999 350 11.1 103060 64
2006-06-02 07:38:33 51°19.037 2°52.806 -999 353 11.1 103060 64
2006-06-02 07:38:38 51°19.042 2°52.833 -999 356 11.1 103060 64
2006-06-02 07:38:44 51°19.048 2°52.865 -999 354 11.1 103040 64
2006-06-02 07:38:49 51°19.053 2°52.891 -999 2 11.1 103040 64
2006-06-02 07:38:53 51°19.057 2°52.912 -999 359 11.1 103050 64
2006-06-02 07:38:59 51°19.064 2°52.944 -999 357 11.1 103050 64
2006-06-02 07:39:04 51°19.069 2°52.97 -999 4 11.1 103050 64
2006-06-02 07:39:09 51°19.076 2°52.996 -999 4 11.1 103050 64
2006-06-02 07:39:14 51°19.082 2°53.022 -999 -999 11.1 103050 65
2006-06-02 07:39:19 51°19.088 2°53.048 -999 360 11.1 103050 65
2006-06-02 07:39:24 51°19.094 2°53.073 -999 1 11.1 103050 65
2006-06-02 07:39:29 51°19.1 2°53.099 -999 2 11.1 103050 65
2006-06-02 07:39:33 51°19.105 2°53.12 -999 5 11.1 103060 65
2006-06-02 07:39:38 51°19.111 2°53.146 -999 1 11.1 103060 65
2006-06-02 07:39:44 51°19.118 2°53.177 -999 357 11.1 103050 65
2006-06-02 07:39:48 51°19.122 2°53.197 -999 359 11.1 103050 65
2006-06-02 07:39:54 51°19.128 2°53.229 -999 -999 11.1 103050 65
2006-06-02 07:39:59 51°19.134 2°53.255 -999 358 11.1 103050 65
2006-06-02 07:40:04 51°19.139 2°53.281 -999 357 11 103050 65
2006-06-02 07:40:09 51°19.144 2°53.308 -999 354 11 103050 65
2006-06-02 07:40:14 51°19.149 2°53.334 -999 360 11 103050 64
2006-06-02 07:40:19 51°19.155 2°53.36 -999 352 11 103050 64
2006-06-02 07:40:24 51°19.159 2°53.386 -999 351 11 103050 64
2006-06-02 07:40:29 51°19.164 2°53.413 -999 350 11 103050 64
2006-06-02 07:40:34 51°19.169 2°53.439 -999 351 11 103050 65
2006-06-02 07:40:39 51°19.174 2°53.465 -999 350 11 103050 65
2006-06-02 07:40:44 51°19.179 2°53.492 -999 352 11 103060 65
2006-06-02 07:40:49 51°19.184 2°53.518 -999 352 11 103060 65
2006-06-02 07:40:53 51°19.188 2°53.539 -999 354 11 103050 65
2006-06-02 07:40:59 51°19.195 2°53.57 -999 350 11 103050 65
2006-06-02 07:41:04 51°19.2 2°53.597 -999 350 11 103050 65
2006-06-02 07:41:09 51°19.205 2°53.623 -999 354 11 103050 65
2006-06-02 07:41:13 51°19.209 2°53.645 -999 351 11 103050 65
2006-06-02 07:41:18 51°19.215 2°53.671 -999 355 11 103050 65
2006-06-02 07:41:24 51°19.221 2°53.703 -999 351 11 103050 65
2006-06-02 07:41:29 51°19.227 2°53.729 -999 351 11 103050 65
2006-06-02 07:41:33 51°19.231 2°53.75 -999 354 11 103050 65
2006-06-02 07:41:38 51°19.237 2°53.776 -999 359 11 103050 65
2006-06-02 07:41:44 51°19.243 2°53.808 -999 1 11 103050 65
2006-06-02 07:41:49 51°19.249 2°53.834 -999 357 11 103050 65
2006-06-02 07:41:53 51°19.252 2°53.856 -999 358 11 103050 65
2006-06-02 07:41:58 51°19.258 2°53.882 -999 354 11 103050 65
2006-06-02 07:42:03 51°19.263 2°53.909 -999 356 11 103050 65
2006-06-02 07:42:09 51°19.27 2°53.941 -999 360 11 103050 65
2006-06-02 07:42:14 51°19.275 2°53.967 -999 354 11 103050 64
2006-06-02 07:42:19 51°19.281 2°53.993 -999 350 11 103050 64
2006-06-02 07:42:24 51°19.286 2°54.021 -999 -999 10.9 103050 64
2006-06-02 07:42:29 51°19.292 2°54.047 -999 355 10.9 103050 64
2006-06-02 07:42:34 51°19.298 2°54.073 -999 355 11 103060 64
2006-06-02 07:42:38 51°19.303 2°54.095 -999 356 11 103060 64
2006-06-02 07:42:44 51°19.31 2°54.127 -999 355 10.9 103050 65
2006-06-02 07:42:48 51°19.314 2°54.149 -999 354 10.9 103050 65
2006-06-02 07:42:54 51°19.321 2°54.18 -999 356 11 103060 65
2006-06-02 07:42:59 51°19.327 2°54.208 -999 -999 11 103060 65
2006-06-02 07:43:04 51°19.333 2°54.234 -999 357 10.9 103050 65
2006-06-02 07:43:09 51°19.339 2°54.261 -999 2 10.9 103050 65
2006-06-02 07:43:14 51°19.345 2°54.288 -999 2 10.9 103060 65
2006-06-02 07:43:17 51°19.348 2°54.304 -999 356 10.9 103060 65
2006-06-02 07:43:24 51°19.356 2°54.341 -999 355 10.9 103050 65
2006-06-02 07:43:29 51°19.362 2°54.369 -999 357 10.9 103050 65
2006-06-02 07:43:34 51°19.367 2°54.396 -999 353 10.9 103060 65
2006-06-02 07:43:39 51°19.373 2°54.423 -999 351 10.9 103060 65
2006-06-02 07:43:44 51°19.378 2°54.45 -999 359 10.9 103060 65
2006-06-02 07:43:49 51°19.383 2°54.477 -999 -999 10.9 103060 65
2006-06-02 07:43:53 51°19.387 2°54.499 -999 2 10.9 103050 65
2006-06-02 07:43:58 51°19.394 2°54.525 -999 2 10.9 103050 65
2006-06-02 07:44:04 51°19.401 2°54.557 -999 357 10.9 103050 65
2006-06-02 07:44:09 51°19.406 2°54.584 -999 4 10.9 103050 65
2006-06-02 07:44:14 51°19.412 2°54.611 -999 -999 10.9 103050 65
2006-06-02 07:44:19 51°19.419 2°54.637 -999 357 10.9 103050 65
2006-06-02 07:44:22 51°19.422 2°54.654 -999 1 10.9 103050 64
2006-06-02 07:44:29 51°19.431 2°54.691 -999 351 10.9 103050 64
2006-06-02 07:44:33 51°19.435 2°54.712 -999 356 10.9 103050 65
2006-06-02 07:44:38 51°19.441 2°54.738 -999 355 10.9 103050 65
2006-06-02 07:44:44 51°19.448 2°54.771 -999 358 10.9 103050 65
2006-06-02 07:44:49 51°19.453 2°54.798 -999 359 10.9 103050 65
2006-06-02 07:44:54 51°19.459 2°54.825 -999 354 10.8 103050 65
2006-06-02 07:44:59 51°19.464 2°54.852 -999 356 10.8 103050 65
2006-06-02 07:45:04 51°19.47 2°54.879 -999 353 10.9 103040 65
2006-06-02 07:45:09 51°19.476 2°54.906 -999 357 10.9 103040 65
2006-06-02 07:45:14 51°19.481 2°54.932 -999 355 10.8 103050 65
2006-06-02 07:45:19 51°19.487 2°54.959 -999 359 10.8 103050 65
2006-06-02 07:45:24 51°19.493 2°54.986 -999 357 10.8 103050 65
2006-06-02 07:45:29 51°19.499 2°55.013 -999 359 10.8 103050 65
2006-06-02 07:45:34 51°19.504 2°55.039 -999 355 10.8 103050 65
2006-06-02 07:45:38 51°19.508 2°55.061 -999 355 10.8 103050 65
2006-06-02 07:45:44 51°19.515 2°55.092 -999 358 10.9 103050 65
2006-06-02 07:45:49 51°19.521 2°55.119 -999 358 10.9 103050 65
2006-06-02 07:45:54 51°19.527 2°55.146 -999 351 10.8 103050 65
2006-06-02 07:45:58 51°19.53 2°55.168 -999 358 10.8 103050 65
2006-06-02 07:46:04 51°19.537 2°55.199 -999 1 10.8 103050 65
2006-06-02 07:46:09 51°19.542 2°55.226 -999 359 10.8 103050 65
2006-06-02 07:46:13 51°19.547 2°55.248 -999 4 10.8 103050 65
2006-06-02 07:46:19 51°19.553 2°55.279 -999 355 10.8 103050 65
2006-06-02 07:46:24 51°19.558 2°55.306 -999 358 10.8 103050 65
2006-06-02 07:46:29 51°19.563 2°55.332 -999 1 10.8 103050 65
2006-06-02 07:46:34 51°19.569 2°55.359 -999 356 10.8 103040 65
2006-06-02 07:46:39 51°19.575 2°55.386 -999 358 10.8 103040 65
2006-06-02 07:46:44 51°19.58 2°55.412 -999 355 10.8 103050 65
2006-06-02 07:46:49 51°19.585 2°55.439 -999 358 10.8 103050 65
2006-06-02 07:46:54 51°19.591 2°55.465 -999 355 10.8 103040 65
2006-06-02 07:46:59 51°19.596 2°55.492 -999 355 10.8 103040 65
2006-06-02 07:47:04 51°19.601 2°55.519 -999 352 10.8 103040 65
2006-06-02 07:47:09 51°19.607 2°55.545 -999 352 10.8 103040 65
2006-06-02 07:47:14 51°19.612 2°55.572 -999 351 10.8 103040 65
2006-06-02 07:47:18 51°19.616 2°55.593 -999 352 10.8 103040 65
2006-06-02 07:47:24 51°19.623 2°55.625 -999 351 10.8 103040 65
2006-06-02 07:47:29 51°19.629 2°55.651 -999 351 10.8 103040 65
2006-06-02 07:47:34 51°19.634 2°55.677 -999 352 10.8 103040 65
2006-06-02 07:47:39 51°19.64 2°55.704 -999 353 10.8 103040 65
2006-06-02 07:47:44 51°19.646 2°55.73 -999 355 10.8 103040 66
2006-06-02 07:47:49 51°19.652 2°55.756 -999 358 10.8 103040 66
2006-06-02 07:47:53 51°19.656 2°55.778 -999 350 10.8 103040 66
2006-06-02 07:47:58 51°19.661 2°55.805 -999 351 10.8 103040 66
2006-06-02 07:48:04 51°19.668 2°55.836 -999 353 10.8 103040 66
2006-06-02 07:48:09 51°19.673 2°55.863 -999 355 10.8 103040 66
2006-06-02 07:48:14 51°19.679 2°55.89 -999 359 10.8 103040 66
2006-06-02 07:48:18 51°19.683 2°55.911 -999 358 10.8 103040 66
2006-06-02 07:48:24 51°19.689 2°55.943 -999 356 10.8 103040 66
2006-06-02 07:48:29 51°19.695 2°55.97 -999 358 10.8 103040 66
2006-06-02 07:48:34 51°19.701 2°55.996 -999 351 10.8 103040 66
2006-06-02 07:48:39 51°19.705 2°56.023 -999 356 10.8 103040 66
2006-06-02 07:48:44 51°19.711 2°56.049 -999 354 10.8 103050 66
2006-06-02 07:48:49 51°19.716 2°56.075 -999 353 10.8 103050 66
2006-06-02 07:48:54 51°19.722 2°56.102 -999 352 10.8 103040 65
2006-06-02 07:48:59 51°19.728 2°56.128 -999 355 10.8 103040 65
2006-06-02 07:49:04 51°19.733 2°56.155 -999 359 10.8 103040 65
2006-06-02 07:49:09 51°19.739 2°56.181 -999 353 10.8 103040 65
2006-06-02 07:49:14 51°19.743 2°56.208 -999 358 10.8 103040 65
2006-06-02 07:49:19 51°19.749 2°56.235 -999 357 10.8 103040 65
2006-06-02 07:49:24 51°19.754 2°56.262 -999 355 10.8 103040 65
2006-06-02 07:49:29 51°19.759 2°56.289 -999 -999 10.8 103040 65
2006-06-02 07:49:34 51°19.765 2°56.315 -999 350 10.8 103040 65
2006-06-02 07:49:39 51°19.769 2°56.342 -999 350 10.8 103040 65
2006-06-02 07:49:44 51°19.775 2°56.368 -999 348 10.8 103050 65
2006-06-02 07:49:49 51°19.779 2°56.395 -999 356 10.8 103050 65
2006-06-02 07:49:53 51°19.784 2°56.416 -999 3 10.7 103050 65
2006-06-02 07:49:58 51°19.79 2°56.443 -999 356 10.7 103050 65
2006-06-02 07:50:04 51°19.796 2°56.474 -999 354 10.8 103050 65
2006-06-02 07:50:09 51°19.801 2°56.5 -999 -999 10.8 103050 65
2006-06-02 07:50:14 51°19.807 2°56.526 -999 358 10.8 103040 66
2006-06-02 07:50:19 51°19.812 2°56.552 -999 355 10.8 103040 66
2006-06-02 07:50:24 51°19.818 2°56.579 -999 356 10.8 103040 65
2006-06-02 07:50:29 51°19.823 2°56.604 -999 354 10.8 103040 65
2006-06-02 07:50:33 51°19.827 2°56.625 -999 356 10.8 103040 66
2006-06-02 07:50:39 51°19.833 2°56.657 -999 354 10.8 103040 66
2006-06-02 07:50:44 51°19.837 2°56.683 -999 356 10.7 103040 66
2006-06-02 07:50:49 51°19.842 2°56.709 -999 357 10.7 103040 66
2006-06-02 07:50:54 51°19.847 2°56.736 -999 350 10.7 103030 66
2006-06-02 07:50:58 51°19.85 2°56.757 -999 356 10.7 103030 66
2006-06-02 07:51:04 51°19.857 2°56.789 -999 356 10.7 103040 66
2006-06-02 07:51:09 51°19.861 2°56.815 -999 357 10.7 103040 66
2006-06-02 07:51:14 51°19.866 2°56.841 -999 1 10.7 103050 66
2006-06-02 07:51:19 51°19.872 2°56.868 -999 356 10.7 103050 66
2006-06-02 07:51:21 51°19.874 2°56.878 -999 357 10.7 103040 66
2006-06-02 07:51:29 51°19.883 2°56.92 -999 356 10.7 103040 66
2006-06-02 07:51:33 51°19.887 2°56.941 -999 1 10.8 103040 66
2006-06-02 07:51:38 51°19.893 2°56.967 -999 356 10.8 103040 66
2006-06-02 07:51:44 51°19.899 2°56.999 -999 354 10.7 103040 66
2006-06-02 07:51:49 51°19.905 2°57.024 -999 351 10.7 103040 66
2006-06-02 07:51:54 51°19.91 2°57.051 -999 356 10.7 103040 66
2006-06-02 07:51:59 51°19.915 2°57.077 -999 353 10.7 103040 66
2006-06-02 07:52:03 51°19.92 2°57.098 -999 355 10.7 103040 66
2006-06-02 07:52:09 51°19.926 2°57.129 -999 356 10.7 103040 66
2006-06-02 07:52:13 51°19.931 2°57.15 -999 356 10.7 103040 65
2006-06-02 07:52:19 51°19.937 2°57.182 -999 353 10.7 103040 65
2006-06-02 07:52:24 51°19.942 2°57.208 -999 357 10.7 103030 65
2006-06-02 07:52:29 51°19.948 2°57.233 -999 350 10.7 103030 65
2006-06-02 07:52:34 51°19.953 2°57.26 -999 355 10.7 103040 65
2006-06-02 07:52:39 51°19.958 2°57.286 -999 351 10.7 103040 65
2006-06-02 07:52:44 51°19.963 2°57.312 -999 357 10.7 103040 65
2006-06-02 07:52:49 51°19.968 2°57.338 -999 355 10.7 103040 65
2006-06-02 07:52:53 51°19.972 2°57.358 -999 355 10.7 103040 65
2006-06-02 07:52:57 51°19.976 2°57.379 -999 352 10.7 103040 65
2006-06-02 07:53:04 51°19.983 2°57.416 -999 352 10.7 103040 65
2006-06-02 07:53:09 51°19.989 2°57.442 -999 347 10.7 103040 65
2006-06-02 07:53:14 51°19.993 2°57.468 -999 355 10.7 103040 65
2006-06-02 07:53:19 51°19.999 2°57.495 -999 351 10.7 103040 65
2006-06-02 07:53:24 51°20.003 2°57.521 -999 355 10.7 103040 65
2006-06-02 07:53:29 51°20.009 2°57.546 -999 351 10.7 103040 65
2006-06-02 07:53:34 51°20.013 2°57.573 -999 359 10.7 103040 65
2006-06-02 07:53:39 51°20.019 2°57.599 -999 353 10.7 103040 65
2006-06-02 07:53:44 51°20.024 2°57.625 -999 356 10.8 103030 65
2006-06-02 07:53:49 51°20.029 2°57.651 -999 354 10.8 103030 65
2006-06-02 07:53:54 51°20.035 2°57.678 -999 354 10.7 103040 65
2006-06-02 07:53:59 51°20.04 2°57.704 -999 355 10.7 103040 65
2006-06-02 07:54:04 51°20.045 2°57.73 -999 356 10.7 103040 65
2006-06-02 07:54:09 51°20.05 2°57.756 -999 355 10.7 103040 65
2006-06-02 07:54:14 51°20.055 2°57.782 -999 360 10.7 103040 65
2006-06-02 07:54:19 51°20.061 2°57.808 -999 358 10.7 103040 65
2006-06-02 07:54:24 51°20.066 2°57.834 -999 355 10.7 103040 65
2006-06-02 07:54:29 51°20.07 2°57.861 -999 2 10.7 103040 65
2006-06-02 07:54:34 51°20.076 2°57.886 -999 355 10.7 103040 65
2006-06-02 07:54:37 51°20.079 2°57.902 -999 353 10.7 103040 65
2006-06-02 07:54:44 51°20.086 2°57.938 -999 354 10.7 103050 65
2006-06-02 07:54:49 51°20.091 2°57.964 -999 354 10.7 103050 65
2006-06-02 07:54:54 51°20.097 2°57.99 -999 352 10.7 103040 65
2006-06-02 07:54:59 51°20.101 2°58.017 -999 360 10.7 103040 65
2006-06-02 07:55:04 51°20.107 2°58.042 -999 354 10.7 103040 65
2006-06-02 07:55:08 51°20.11 2°58.064 -999 358 10.7 103040 65
2006-06-02 07:55:13 51°20.116 2°58.089 -999 346 10.7 103040 65
2006-06-02 07:55:18 51°20.12 2°58.116 -999 349 10.7 103040 65
2006-06-02 07:55:24 51°20.126 2°58.148 -999 354 10.7 103040 65
2006-06-02 07:55:29 51°20.131 2°58.174 -999 353 10.7 103040 65
2006-06-02 07:55:34 51°20.135 2°58.2 -999 352 10.7 103040 65
2006-06-02 07:55:38 51°20.14 2°58.221 -999 356 10.7 103040 65
2006-06-02 07:55:44 51°20.145 2°58.252 -999 348 10.7 103040 65